createdAt,value
2023-02-18T00:01:14.449Z,78.92
2023-02-18T00:03:42.300Z,79.86
2023-02-18T00:06:16.970Z,80.38
2023-02-18T00:08:45.277Z,80.42
2023-02-18T00:11:13.314Z,80.58
2023-02-18T00:13:40.703Z,79.69
2023-02-18T00:16:11.326Z,80.11
2023-02-18T00:18:39.782Z,78.76
2023-02-18T00:21:08.250Z,79.27
2023-02-18T00:23:36.230Z,80.11
2023-02-18T00:26:07.618Z,79.85
2023-02-18T00:28:35.379Z,80.39
2023-02-18T00:31:13.149Z,80.54
2023-02-18T00:33:41.335Z,80.34
2023-02-18T00:36:11.549Z,79.35
2023-02-18T00:38:39.600Z,80.27
2023-02-18T00:41:07.005Z,80.40
2023-02-18T00:43:34.503Z,79.59
2023-02-18T00:46:03.256Z,79.73
2023-02-18T00:48:32.225Z,79.53
2023-02-18T00:51:01.184Z,79.13
2023-02-18T00:53:29.211Z,79.96
2023-02-18T00:55:57.725Z,79.35
2023-02-18T00:58:25.787Z,79.79
2023-02-18T01:00:54.039Z,79.32
2023-02-18T01:03:22.703Z,78.92
2023-02-18T01:05:50.671Z,79.63
2023-02-18T01:08:19.184Z,80.00
2023-02-18T01:10:48.552Z,80.04
2023-02-18T01:13:16.702Z,79.69
2023-02-18T01:15:46.447Z,80.57
2023-02-18T01:18:14.386Z,79.71
2023-02-18T01:20:43.383Z,80.39
2023-02-18T01:23:11.601Z,80.27
2023-02-18T01:25:39.371Z,80.67
2023-02-18T01:28:09.668Z,80.72
2023-02-18T01:30:37.103Z,80.50
2023-02-18T01:33:05.494Z,80.25
2023-02-18T01:35:33.573Z,80.04
2023-02-18T01:38:01.538Z,80.24
2023-02-18T01:40:30.398Z,79.89
2023-02-18T01:42:57.982Z,79.92
2023-02-18T01:45:34.789Z,81.13
2023-02-18T01:48:17.566Z,80.28
2023-02-18T01:50:49.194Z,79.43
2023-02-18T01:53:20.967Z,79.37
2023-02-18T01:55:49.158Z,78.39
2023-02-18T01:58:17.397Z,77.98
2023-02-18T02:00:46.527Z,78.32
2023-02-18T02:03:15.420Z,78.44
2023-02-18T02:05:44.300Z,79.00
2023-02-18T02:08:16.545Z,78.96
2023-02-18T02:10:59.534Z,78.02
2023-02-18T02:13:35.663Z,78.30
2023-02-18T02:16:37.406Z,78.77
2023-02-18T02:19:35.925Z,78.13
2023-02-18T02:22:26.189Z,78.00
2023-02-18T02:25:16.799Z,77.60
2023-02-18T02:27:53.444Z,77.01
2023-02-18T02:30:30.040Z,76.93
2023-02-18T02:33:06.141Z,76.72
2023-02-18T02:36:00.252Z,77.22
2023-02-18T02:38:39.517Z,77.63
2023-02-18T02:41:20.075Z,76.86
2023-02-18T02:44:07.909Z,76.92
2023-02-18T02:46:45.659Z,76.69
2023-02-18T02:49:40.027Z,76.99
2023-02-18T02:52:18.367Z,77.66
2023-02-18T02:54:46.332Z,77.96
2023-02-18T02:57:13.818Z,77.30
2023-02-18T02:59:58.515Z,76.75
2023-02-18T03:02:38.693Z,76.04
2023-02-18T03:05:33.878Z,76.15
2023-02-18T03:08:28.875Z,75.74
2023-02-18T03:11:05.453Z,77.76
2023-02-18T03:13:41.886Z,77.87
2023-02-18T03:16:26.109Z,76.55
2023-02-18T03:19:18.156Z,76.39
2023-02-18T03:21:50.403Z,77.18
2023-02-18T03:24:27.817Z,76.96
2023-02-18T03:27:10.176Z,77.05
2023-02-18T03:29:38.644Z,78.03
2023-02-18T03:32:08.471Z,76.27
2023-02-18T03:34:40.220Z,76.79
2023-02-18T03:37:09.386Z,76.68
2023-02-18T03:39:38.193Z,76.53
2023-02-18T03:42:05.928Z,76.71
2023-02-18T03:44:33.389Z,75.31
2023-02-18T03:47:01.132Z,75.17
2023-02-18T03:49:28.512Z,75.55
2023-02-18T03:51:56.111Z,76.07
2023-02-18T03:54:23.680Z,76.28
2023-02-18T03:56:51.108Z,76.44
2023-02-18T03:59:18.488Z,77.50
2023-02-18T04:01:45.929Z,76.77
2023-02-18T04:04:13.581Z,77.07
2023-02-18T04:06:41.021Z,76.34
2023-02-18T04:09:09.064Z,75.62
2023-02-18T04:11:40.817Z,74.70
2023-02-18T04:14:08.702Z,74.60
2023-02-18T04:16:36.173Z,75.21
2023-02-18T04:19:03.802Z,73.29
2023-02-18T04:21:31.359Z,73.86
2023-02-18T04:23:58.976Z,73.59
2023-02-18T04:26:26.479Z,74.29
2023-02-18T04:28:53.849Z,74.74
2023-02-18T04:31:21.350Z,74.66
2023-02-18T04:33:49.146Z,74.41
2023-02-18T04:36:17.431Z,73.65
2023-02-18T04:38:44.694Z,73.25
2023-02-18T04:41:12.854Z,73.79
2023-02-18T04:43:40.423Z,73.77
2023-02-18T04:46:08.257Z,74.06
2023-02-18T04:48:35.816Z,73.93
2023-02-18T04:51:03.613Z,73.76
2023-02-18T04:53:31.166Z,73.09
2023-02-18T04:55:59.442Z,72.89
2023-02-18T04:58:26.917Z,72.88
2023-02-18T05:00:54.391Z,73.03
2023-02-18T05:03:21.754Z,72.94
2023-02-18T05:05:49.270Z,72.74
2023-02-18T05:08:16.763Z,72.97
2023-02-18T05:10:44.032Z,71.97
2023-02-18T05:13:11.385Z,73.02
2023-02-18T05:15:39.027Z,73.02
2023-02-18T05:18:07.388Z,73.24
2023-02-18T05:20:35.146Z,73.34
2023-02-18T05:23:02.754Z,73.00
2023-02-18T05:25:30.142Z,72.80
2023-02-18T05:27:57.633Z,72.56
2023-02-18T05:30:25.268Z,73.17
2023-02-18T05:32:52.687Z,73.28
2023-02-18T05:35:20.272Z,71.81
2023-02-18T05:37:47.849Z,72.37
2023-02-18T05:40:15.288Z,71.82
2023-02-18T05:42:42.663Z,72.58
2023-02-18T05:45:10.322Z,71.71
2023-02-18T05:47:37.885Z,72.05
2023-02-18T05:50:06.561Z,71.72
2023-02-18T05:52:34.157Z,71.76
2023-02-18T05:55:01.500Z,70.72
2023-02-18T05:57:29.469Z,71.03
2023-02-18T05:59:57.908Z,70.99
2023-02-18T06:02:26.320Z,71.35
2023-02-18T06:04:53.671Z,71.17
2023-02-18T06:07:21.116Z,70.92
2023-02-18T06:09:49.220Z,70.96
2023-02-18T06:12:17.078Z,70.46
2023-02-18T06:14:44.520Z,69.50
2023-02-18T06:17:13.199Z,70.01
2023-02-18T06:19:41.037Z,70.67
2023-02-18T06:22:08.581Z,71.61
2023-02-18T06:24:35.825Z,71.16
2023-02-18T06:27:04.101Z,70.68
2023-02-18T06:29:32.079Z,70.27
2023-02-18T06:32:00.151Z,71.06
2023-02-18T06:34:28.341Z,70.72
2023-02-18T06:36:55.774Z,70.24
2023-02-18T06:39:23.517Z,70.59
2023-02-18T06:41:50.965Z,70.50
2023-02-18T06:44:18.268Z,70.22
2023-02-18T06:46:45.797Z,70.34
2023-02-18T06:49:13.245Z,70.84
2023-02-18T06:51:42.495Z,70.62
2023-02-18T06:54:09.884Z,70.76
2023-02-18T06:56:37.198Z,70.64
2023-02-18T06:59:04.830Z,70.03
2023-02-18T07:01:32.171Z,70.40
2023-02-18T07:03:59.954Z,70.06
2023-02-18T07:06:27.268Z,68.03
2023-02-18T07:08:54.673Z,68.48
2023-02-18T07:11:22.287Z,69.12
2023-02-18T07:13:50.143Z,67.83
2023-02-18T07:16:17.581Z,68.17
2023-02-18T07:18:46.140Z,65.77
2023-02-18T07:21:13.582Z,66.62
2023-02-18T07:23:41.364Z,66.65
2023-02-18T07:26:11.344Z,66.20
2023-02-18T07:28:38.866Z,66.89
2023-02-18T07:31:06.804Z,66.97
2023-02-18T07:33:34.411Z,67.17
2023-02-18T07:36:03.129Z,66.44
2023-02-18T07:38:30.885Z,65.21
2023-02-18T07:40:59.288Z,66.10
2023-02-18T07:43:26.786Z,65.76
2023-02-18T07:45:55.122Z,64.91
2023-02-18T07:48:22.437Z,65.54
2023-02-18T07:50:49.859Z,65.49
2023-02-18T07:53:17.338Z,66.01
2023-02-18T07:55:50.823Z,65.20
2023-02-18T07:58:27.289Z,65.10
2023-02-18T08:00:55.142Z,64.79
2023-02-18T08:03:25.004Z,64.39
2023-02-18T08:05:52.717Z,64.21
2023-02-18T08:08:26.182Z,64.26
2023-02-18T08:10:55.520Z,63.13
2023-02-18T08:13:22.884Z,64.33
2023-02-18T08:15:50.482Z,64.63
2023-02-18T08:18:20.617Z,64.51
2023-02-18T08:20:49.315Z,64.22
2023-02-18T08:23:17.187Z,63.86
2023-02-18T08:25:50.527Z,64.13
2023-02-18T08:28:19.043Z,64.37
2023-02-18T08:30:51.115Z,64.75
2023-02-18T08:33:19.313Z,63.95
2023-02-18T08:35:47.592Z,63.57
2023-02-18T08:38:15.164Z,64.28
2023-02-18T08:40:42.885Z,64.42
2023-02-18T08:43:10.942Z,63.58
2023-02-18T08:45:39.471Z,64.18
2023-02-18T08:48:18.157Z,64.47
2023-02-18T08:50:48.270Z,64.23
2023-02-18T08:53:16.153Z,64.00
2023-02-18T08:55:44.027Z,62.96
2023-02-18T08:58:11.742Z,63.86
2023-02-18T09:00:40.269Z,65.78
2023-02-18T09:03:08.065Z,64.05
2023-02-18T09:05:35.465Z,65.26
2023-02-18T09:08:02.922Z,66.25
2023-02-18T09:10:30.186Z,66.46
2023-02-18T09:12:57.540Z,65.17
2023-02-18T09:15:25.463Z,65.51
2023-02-18T09:17:54.006Z,64.78
2023-02-18T09:20:21.510Z,64.58
2023-02-18T09:22:48.980Z,65.48
2023-02-18T09:25:16.421Z,65.25
2023-02-18T09:27:44.007Z,65.06
2023-02-18T09:30:12.103Z,63.51
2023-02-18T09:32:39.780Z,65.03
2023-02-18T09:35:07.586Z,64.24
2023-02-18T09:37:35.016Z,64.53
2023-02-18T09:40:02.375Z,65.53
2023-02-18T09:42:32.982Z,64.51
2023-02-18T09:45:04.581Z,64.96
2023-02-18T09:47:37.429Z,64.82
2023-02-18T09:50:09.361Z,65.78
2023-02-18T09:52:38.576Z,65.47
2023-02-18T09:55:30.034Z,65.50
2023-02-18T09:58:01.370Z,64.75
2023-02-18T10:00:36.995Z,65.64
2023-02-18T10:03:08.168Z,64.68
2023-02-18T10:05:36.590Z,64.22
2023-02-18T10:08:08.378Z,63.89
2023-02-18T10:10:42.622Z,63.37
2023-02-18T10:13:21.885Z,64.06
2023-02-18T10:15:51.274Z,63.88
2023-02-18T10:18:27.727Z,65.46
2023-02-18T10:21:05.296Z,63.48
2023-02-18T10:23:42.286Z,63.08
2023-02-18T10:26:15.787Z,63.05
2023-02-18T10:28:43.658Z,63.24
2023-02-18T10:31:15.842Z,63.97
2023-02-18T10:33:48.283Z,63.50
2023-02-18T10:36:28.914Z,63.11
2023-02-18T10:38:59.097Z,62.73
2023-02-18T10:41:29.689Z,62.86
2023-02-18T10:44:19.194Z,62.04
2023-02-18T10:47:06.584Z,62.54
2023-02-18T10:49:40.117Z,63.86
2023-02-18T10:52:15.645Z,65.03
2023-02-18T10:55:09.552Z,64.58
2023-02-18T10:57:47.306Z,64.80
2023-02-18T11:00:14.648Z,64.20
2023-02-18T11:02:42.629Z,63.57
2023-02-18T11:05:28.747Z,63.96
2023-02-18T11:07:59.171Z,65.11
2023-02-18T11:10:31.571Z,65.39
2023-02-18T11:13:02.416Z,64.39
2023-02-18T11:15:30.217Z,64.31
2023-02-18T11:18:13.089Z,64.87
2023-02-18T11:20:41.248Z,65.29
2023-02-18T11:23:18.151Z,65.09
2023-02-18T11:26:00.401Z,64.68
2023-02-18T11:28:45.726Z,64.05
2023-02-18T11:31:22.911Z,64.34
2023-02-18T11:33:57.169Z,64.66
2023-02-18T11:36:33.383Z,64.37
2023-02-18T11:39:07.580Z,65.70
2023-02-18T11:41:40.738Z,65.21
2023-02-18T11:44:31.707Z,64.57
2023-02-18T11:47:15.045Z,66.09
2023-02-18T11:49:44.999Z,64.80
2023-02-18T11:52:22.616Z,63.36
2023-02-18T11:55:22.386Z,63.73
2023-02-18T11:57:53.220Z,63.35
2023-02-18T12:00:43.690Z,62.89
2023-02-18T12:03:34.720Z,63.14
2023-02-18T12:06:06.264Z,63.01
2023-02-18T12:08:38.598Z,62.12
2023-02-18T12:11:13.656Z,63.04
2023-02-18T12:13:51.589Z,63.59
2023-02-18T12:16:45.489Z,64.25
2023-02-18T12:19:25.376Z,63.61
2023-02-18T12:22:08.562Z,63.73
2023-02-18T12:24:42.094Z,63.42
2023-02-18T12:27:46.001Z,62.81
2023-02-18T12:30:22.480Z,62.40
2023-02-18T12:33:12.565Z,63.38
2023-02-18T12:36:15.016Z,62.80
2023-02-18T12:39:14.779Z,64.97
2023-02-18T12:42:08.152Z,62.41
2023-02-18T12:44:55.335Z,62.59
2023-02-18T12:47:44.629Z,62.13
2023-02-18T12:50:21.074Z,62.75
2023-02-18T12:52:56.640Z,63.46
2023-02-18T12:55:39.278Z,64.08
2023-02-18T12:58:21.626Z,63.76
2023-02-18T13:01:01.178Z,63.73
2023-02-18T13:04:03.982Z,63.10
2023-02-18T13:07:07.968Z,61.85
2023-02-18T13:09:58.052Z,61.96
2023-02-18T13:12:32.807Z,62.11
2023-02-18T13:15:06.281Z,62.21
2023-02-18T13:17:36.858Z,61.70
2023-02-18T13:20:26.305Z,61.23
2023-02-18T13:22:54.077Z,60.88
2023-02-18T13:25:22.151Z,62.43
2023-02-18T13:28:42.123Z,61.91
2023-02-18T13:31:37.425Z,62.39
2023-02-18T13:34:08.066Z,61.67
2023-02-18T13:36:47.303Z,63.20
2023-02-18T13:39:20.584Z,62.63
2023-02-18T13:41:50.659Z,63.52
2023-02-18T13:44:20.917Z,64.15
2023-02-18T13:46:49.659Z,64.15
2023-02-18T13:49:22.783Z,64.72
2023-02-18T13:51:51.537Z,64.16
2023-02-18T13:54:24.843Z,64.17
2023-02-18T13:57:03.040Z,63.56
2023-02-18T13:59:42.040Z,63.27
2023-02-18T14:02:21.736Z,63.34
2023-02-18T14:04:51.954Z,62.59
2023-02-18T14:07:36.011Z,62.65
2023-02-18T14:10:27.456Z,62.44
2023-02-18T14:13:20.959Z,62.48
2023-02-18T14:15:57.106Z,63.22
2023-02-18T14:18:32.198Z,63.78
2023-02-18T14:21:05.667Z,63.93
2023-02-18T14:23:43.612Z,64.81
2023-02-18T14:26:14.097Z,64.03
2023-02-18T14:28:45.520Z,64.76
2023-02-18T14:31:13.683Z,64.12
2023-02-18T14:33:44.647Z,64.10
2023-02-18T14:36:15.237Z,64.17
2023-02-18T14:39:09.249Z,64.63
2023-02-18T14:41:42.868Z,65.17
2023-02-18T14:44:47.678Z,64.80
2023-02-18T14:47:23.012Z,64.93
2023-02-18T14:49:53.609Z,64.77
2023-02-18T14:52:33.759Z,65.64
2023-02-18T14:55:01.530Z,66.42
2023-02-18T14:57:53.582Z,66.44
2023-02-18T15:00:26.226Z,65.68
2023-02-18T15:02:55.137Z,64.53
2023-02-18T15:05:25.318Z,64.90
2023-02-18T15:07:55.619Z,65.25
2023-02-18T15:10:27.590Z,64.89
2023-02-18T15:12:55.024Z,63.96
2023-02-18T15:15:22.675Z,66.61
2023-02-18T15:17:50.597Z,66.84
2023-02-18T15:20:18.033Z,65.37
2023-02-18T15:22:45.619Z,62.83
2023-02-18T15:25:13.911Z,63.28
2023-02-18T15:27:44.638Z,62.73
2023-02-18T15:30:29.833Z,63.75
2023-02-18T15:32:59.122Z,63.51
2023-02-18T15:35:30.119Z,62.75
2023-02-18T15:37:59.656Z,63.27
2023-02-18T15:40:31.158Z,63.44
2023-02-18T15:43:01.048Z,63.32
2023-02-18T15:45:39.308Z,63.01
2023-02-18T15:48:06.916Z,62.67
2023-02-18T15:50:45.383Z,63.24
2023-02-18T15:53:16.258Z,63.84
2023-02-18T15:55:46.802Z,62.95
2023-02-18T15:58:31.118Z,62.29
2023-02-18T16:01:01.826Z,63.36
2023-02-18T16:03:31.650Z,63.34
2023-02-18T16:06:25.537Z,63.17
2023-02-18T16:09:02.726Z,63.65
2023-02-18T16:11:35.148Z,63.82
2023-02-18T16:14:02.944Z,64.15
2023-02-18T16:16:33.782Z,63.75
2023-02-18T16:19:01.501Z,63.57
2023-02-18T16:21:40.629Z,62.36
2023-02-18T16:24:41.033Z,63.10
2023-02-18T16:27:16.158Z,62.83
2023-02-18T16:29:45.745Z,62.95
2023-02-18T16:32:18.439Z,63.58
2023-02-18T16:34:48.857Z,63.57
2023-02-18T16:37:35.102Z,63.57
2023-02-18T16:40:05.571Z,64.01
2023-02-18T16:42:33.581Z,64.11
2023-02-18T16:45:03.865Z,64.82
2023-02-18T16:47:31.226Z,64.08
2023-02-18T16:49:59.639Z,64.03
2023-02-18T16:52:30.284Z,63.36
2023-02-18T16:55:01.273Z,63.13
2023-02-18T16:57:34.246Z,63.47
2023-02-18T17:00:01.946Z,63.26
2023-02-18T17:02:30.574Z,63.73
2023-02-18T17:04:59.620Z,64.46
2023-02-18T17:07:27.475Z,64.80
2023-02-18T17:09:54.794Z,65.13
2023-02-18T17:12:22.423Z,64.53
2023-02-18T17:14:49.886Z,64.56
2023-02-18T17:17:22.624Z,64.95
2023-02-18T17:19:50.343Z,64.86
2023-02-18T17:22:18.095Z,65.20
2023-02-18T17:24:45.702Z,65.74
2023-02-18T17:27:13.261Z,65.70
2023-02-18T17:29:40.821Z,66.39
2023-02-18T17:32:08.872Z,67.10
2023-02-18T17:34:41.294Z,66.28
2023-02-18T17:37:14.027Z,65.75
2023-02-18T17:39:44.383Z,65.82
2023-02-18T17:42:11.877Z,66.19
2023-02-18T17:44:40.568Z,66.03
2023-02-18T17:47:07.977Z,66.26
2023-02-18T17:49:35.395Z,66.40
2023-02-18T17:52:02.841Z,66.88
2023-02-18T17:54:30.329Z,67.88
2023-02-18T17:56:57.818Z,68.29
2023-02-18T17:59:28.498Z,68.76
2023-02-18T18:01:55.945Z,68.43
2023-02-18T18:04:26.115Z,68.07
2023-02-18T18:06:59.865Z,67.70
2023-02-18T18:09:27.465Z,67.65
2023-02-18T18:11:56.982Z,68.84
2023-02-18T18:14:24.577Z,69.23
2023-02-18T18:16:52.170Z,68.72
2023-02-18T18:19:19.581Z,69.14
2023-02-18T18:21:52.599Z,68.06
2023-02-18T18:24:22.925Z,67.93
2023-02-18T18:26:50.436Z,69.15
2023-02-18T18:29:17.980Z,69.16
2023-02-18T18:31:45.474Z,68.88
2023-02-18T18:34:16.750Z,68.35
2023-02-18T18:36:44.520Z,67.89
2023-02-18T18:39:16.870Z,67.97
2023-02-18T18:41:44.362Z,67.68
2023-02-18T18:44:12.167Z,67.43
2023-02-18T18:46:39.671Z,67.42
2023-02-18T18:49:07.016Z,67.29
2023-02-18T18:51:34.382Z,68.48
2023-02-18T18:54:01.794Z,69.12
2023-02-18T18:56:29.651Z,69.92
2023-02-18T18:58:57.348Z,68.87
2023-02-18T19:01:27.507Z,69.82
2023-02-18T19:03:55.316Z,70.57
2023-02-18T19:06:22.878Z,70.12
2023-02-18T19:08:50.381Z,71.26
2023-02-18T19:11:18.109Z,71.63
2023-02-18T19:13:45.982Z,70.92
2023-02-18T19:16:35.102Z,71.11
2023-02-18T19:19:06.006Z,71.03
2023-02-18T19:21:33.695Z,70.74
2023-02-18T19:24:01.160Z,70.74
2023-02-18T19:26:28.435Z,70.95
2023-02-18T19:28:55.809Z,70.53
2023-02-18T19:31:24.496Z,70.09
2023-02-18T19:33:52.327Z,70.93
2023-02-18T19:36:19.808Z,70.80
2023-02-18T19:38:48.214Z,71.00
2023-02-18T19:41:17.103Z,71.25
2023-02-18T19:43:46.596Z,71.17
2023-02-18T19:46:16.610Z,70.15
2023-02-18T19:48:49.316Z,70.50
2023-02-18T19:51:17.038Z,70.23
2023-02-18T19:53:44.604Z,70.66
2023-02-18T19:56:12.348Z,71.07
2023-02-18T19:58:40.431Z,70.88
2023-02-18T20:01:16.155Z,71.05
2023-02-18T20:03:44.122Z,70.87
2023-02-18T20:06:21.054Z,71.04
2023-02-18T20:08:48.610Z,70.69
2023-02-18T20:11:16.444Z,71.66
2023-02-18T20:13:44.293Z,71.57
2023-02-18T20:16:12.146Z,71.72
2023-02-18T20:18:39.766Z,72.04
2023-02-18T20:21:10.844Z,71.56
2023-02-18T20:23:38.764Z,70.96
2023-02-18T20:26:10.111Z,70.69
2023-02-18T20:28:37.473Z,71.33
2023-02-18T20:31:11.364Z,71.59
2023-02-18T20:33:39.707Z,71.21
2023-02-18T20:36:08.639Z,71.00
2023-02-18T20:38:37.072Z,70.61
2023-02-18T20:41:14.672Z,71.61
2023-02-18T20:43:42.344Z,70.57
2023-02-18T20:46:12.345Z,69.88
2023-02-18T20:48:40.068Z,68.57
2023-02-18T20:51:13.680Z,69.81
2023-02-18T20:53:42.382Z,70.48
2023-02-18T20:56:10.069Z,71.16
2023-02-18T20:58:38.231Z,71.61
2023-02-18T21:01:11.264Z,71.36
2023-02-18T21:03:39.637Z,70.74
2023-02-18T21:06:10.021Z,70.55
2023-02-18T21:08:40.340Z,70.58
2023-02-18T21:11:11.489Z,71.62
2023-02-18T21:13:39.104Z,71.29
2023-02-18T21:16:07.344Z,72.60
2023-02-18T21:18:34.894Z,72.15
2023-02-18T21:21:03.949Z,70.92
2023-02-18T21:23:31.401Z,71.32
2023-02-18T21:26:12.895Z,72.27
2023-02-18T21:28:40.572Z,71.56
2023-02-18T21:31:18.077Z,71.42
2023-02-18T21:33:45.700Z,71.40
2023-02-18T21:36:14.288Z,71.96
2023-02-18T21:38:44.655Z,72.07
2023-02-18T21:41:12.863Z,71.60
2023-02-18T21:43:40.455Z,72.09
2023-02-18T21:46:15.822Z,71.88
2023-02-18T21:49:02.370Z,71.62
2023-02-18T21:51:53.551Z,72.03
2023-02-18T21:54:24.198Z,73.03
2023-02-18T21:56:51.762Z,72.51
2023-02-18T21:59:20.573Z,72.21
2023-02-18T22:01:48.575Z,72.40
2023-02-18T22:04:16.409Z,72.08
2023-02-18T22:06:43.757Z,72.60
2023-02-18T22:09:11.567Z,72.57
2023-02-18T22:11:42.055Z,72.73
2023-02-18T22:14:13.877Z,72.72
2023-02-18T22:16:42.024Z,72.63
2023-02-18T22:19:11.166Z,72.10
2023-02-18T22:21:38.649Z,71.81
2023-02-18T22:24:06.863Z,71.10
2023-02-18T22:26:34.468Z,74.42
2023-02-18T22:29:02.052Z,73.19
2023-02-18T22:31:31.405Z,72.39
2023-02-18T22:33:59.851Z,73.28
2023-02-18T22:36:28.548Z,71.70
2023-02-18T22:38:56.465Z,71.47
2023-02-18T22:41:24.693Z,72.21
2023-02-18T22:43:56.703Z,71.60
2023-02-18T22:46:24.618Z,72.02
2023-02-18T22:48:53.470Z,71.51
2023-02-18T22:51:29.265Z,71.82
2023-02-18T22:53:58.064Z,72.07
2023-02-18T22:56:27.366Z,72.15
2023-02-18T22:58:55.875Z,73.23
2023-02-18T23:01:25.024Z,73.50
2023-02-18T23:03:53.543Z,72.38
2023-02-18T23:06:21.890Z,71.92
2023-02-18T23:08:49.774Z,72.89
2023-02-18T23:11:19.211Z,73.10
2023-02-18T23:14:07.655Z,72.14
2023-02-18T23:16:56.692Z,73.05
2023-02-18T23:19:25.855Z,73.42
2023-02-18T23:21:53.297Z,73.27
2023-02-18T23:24:21.331Z,74.20
2023-02-18T23:26:49.111Z,74.79
2023-02-18T23:29:17.036Z,75.18
2023-02-18T23:31:44.634Z,74.88
2023-02-18T23:34:14.479Z,74.34
2023-02-18T23:36:43.295Z,75.74
2023-02-18T23:39:13.384Z,75.43
2023-02-18T23:41:40.768Z,75.67
2023-02-18T23:44:11.273Z,75.23
2023-02-18T23:46:39.518Z,75.73
2023-02-18T23:49:07.277Z,75.87
2023-02-18T23:51:34.761Z,77.52
2023-02-18T23:54:03.525Z,77.69
2023-02-18T23:56:31.935Z,77.47
2023-02-18T23:59:01.356Z,79.12
